createdAt,value
2023-04-20T00:01:48.623Z,8.79
2023-04-20T00:04:16.941Z,8.69
2023-04-20T00:06:45.685Z,8.62
2023-04-20T00:09:15.686Z,8.76
2023-04-20T00:11:44.062Z,8.47
2023-04-20T00:14:11.960Z,8.71
2023-04-20T00:16:40.089Z,8.56
2023-04-20T00:19:08.510Z,8.67
2023-04-20T00:21:36.622Z,8.67
2023-04-20T00:24:04.846Z,8.47
2023-04-20T00:26:33.264Z,8.69
2023-04-20T00:29:01.454Z,8.75
2023-04-20T00:31:29.548Z,8.84
2023-04-20T00:33:57.702Z,8.93
2023-04-20T00:36:25.573Z,8.80
2023-04-20T00:38:53.355Z,8.87
2023-04-20T00:41:22.308Z,8.70
2023-04-20T00:43:54.288Z,8.60
2023-04-20T00:46:23.221Z,8.55
2023-04-20T00:48:52.723Z,8.53
2023-04-20T00:55:51.931Z,8.49
2023-04-20T00:58:19.855Z,8.53
2023-04-20T01:00:47.878Z,8.51
2023-04-20T01:03:18.224Z,8.51
2023-04-20T01:05:49.864Z,8.51
2023-04-20T01:08:17.708Z,8.44
2023-04-20T01:10:46.378Z,8.31
2023-04-20T01:13:14.293Z,8.24
2023-04-20T01:15:42.279Z,8.27
2023-04-20T01:18:10.079Z,8.19
2023-04-20T01:20:39.341Z,8.13
2023-04-20T01:23:07.346Z,8.26
2023-04-20T01:25:35.134Z,8.26
2023-04-20T01:28:03.304Z,8.34
2023-04-20T01:30:32.993Z,8.35
2023-04-20T01:33:00.903Z,8.33
2023-04-20T01:35:28.834Z,8.02
2023-04-20T01:37:56.812Z,8.23
2023-04-20T01:40:25.469Z,8.03
2023-04-20T01:42:53.478Z,8.23
2023-04-20T01:45:23.663Z,8.27
2023-04-20T01:47:52.092Z,8.32
2023-04-20T01:50:19.961Z,8.24
2023-04-20T01:52:47.784Z,8.28
2023-04-20T01:55:19.588Z,8.34
2023-04-20T01:57:48.115Z,8.32
2023-04-20T02:00:16.522Z,8.53
2023-04-20T02:02:45.077Z,8.61
2023-04-20T02:05:13.254Z,8.73
2023-04-20T02:07:41.392Z,8.85
2023-04-20T02:10:09.778Z,8.91
2023-04-20T02:12:37.699Z,8.96
2023-04-20T02:15:07.057Z,9.04
2023-04-20T02:17:37.219Z,9.00
2023-04-20T02:20:12.710Z,9.11
2023-04-20T02:22:40.738Z,9.24
2023-04-20T02:25:09.969Z,9.31
2023-04-20T02:27:38.587Z,9.28
2023-04-20T02:30:07.033Z,9.26
2023-04-20T02:32:35.788Z,9.39
2023-04-20T02:35:07.187Z,9.37
2023-04-20T02:37:35.203Z,9.42
2023-04-20T02:40:03.076Z,9.41
2023-04-20T02:42:31.179Z,9.40
2023-04-20T02:45:01.490Z,9.36
2023-04-20T02:47:29.530Z,9.39
2023-04-20T02:49:57.639Z,9.41
2023-04-20T02:55:33.191Z,9.18
2023-04-20T02:58:07.241Z,9.23
2023-04-20T03:01:01.962Z,9.24
2023-04-20T03:03:31.165Z,9.29
2023-04-20T03:05:59.683Z,9.12
2023-04-20T03:08:28.242Z,9.17
2023-04-20T03:10:58.939Z,9.15
2023-04-20T03:13:26.838Z,9.18
2023-04-20T03:16:02.166Z,9.21
2023-04-20T03:18:35.398Z,9.23
2023-04-20T03:21:03.420Z,9.17
2023-04-20T03:23:32.572Z,9.20
2023-04-20T03:26:02.393Z,9.09
2023-04-20T03:28:42.517Z,8.97
2023-04-20T03:31:13.908Z,8.84
2023-04-20T03:33:41.911Z,8.95
2023-04-20T03:36:11.552Z,9.04
2023-04-20T03:38:39.617Z,9.09
2023-04-20T03:41:08.401Z,9.16
2023-04-20T03:43:36.481Z,9.08
2023-04-20T03:46:04.784Z,9.06
2023-04-20T03:48:33.501Z,9.03
2023-04-20T03:51:01.742Z,8.90
2023-04-20T03:53:29.742Z,8.96
2023-04-20T03:55:58.354Z,9.05
2023-04-20T03:58:27.141Z,8.84
2023-04-20T04:01:11.248Z,8.91
2023-04-20T04:03:42.883Z,8.82
2023-04-20T04:06:12.564Z,8.81
2023-04-20T04:08:41.496Z,8.84
2023-04-20T04:11:09.766Z,8.90
2023-04-20T04:13:37.753Z,9.05
2023-04-20T04:16:08.328Z,8.96
2023-04-20T04:18:36.890Z,9.07
2023-04-20T04:21:10.960Z,9.13
2023-04-20T04:23:42.708Z,9.09
2023-04-20T04:26:39.899Z,8.96
2023-04-20T04:29:09.247Z,8.99
2023-04-20T04:31:37.694Z,9.02
2023-04-20T04:34:13.984Z,8.98
2023-04-20T04:36:48.288Z,8.94
2023-04-20T04:39:20.060Z,9.13
2023-04-20T04:42:04.823Z,9.16
2023-04-20T04:44:42.091Z,9.31
2023-04-20T04:47:14.554Z,9.31
2023-04-20T04:49:42.952Z,9.33
2023-04-20T04:52:10.878Z,8.93
2023-04-20T04:54:39.257Z,9.01
2023-04-20T04:57:07.568Z,9.07
2023-04-20T04:59:35.588Z,9.10
2023-04-20T05:02:03.620Z,9.08
2023-04-20T05:04:32.043Z,9.18
2023-04-20T05:07:00.086Z,9.26
2023-04-20T05:09:33.658Z,9.09
2023-04-20T05:12:03.306Z,9.18
2023-04-20T05:14:32.411Z,9.30
2023-04-20T05:17:00.627Z,9.44
2023-04-20T05:19:28.455Z,9.43
2023-04-20T05:21:56.557Z,9.42
2023-04-20T05:24:24.466Z,9.42
2023-04-20T05:26:52.449Z,9.60
2023-04-20T05:29:20.596Z,9.55
2023-04-20T05:31:48.654Z,9.66
2023-04-20T05:34:16.847Z,9.79
2023-04-20T05:36:45.100Z,9.86
2023-04-20T05:39:13.143Z,9.92
2023-04-20T05:41:41.144Z,9.95
2023-04-20T05:44:09.084Z,10.11
2023-04-20T05:46:37.015Z,10.10
2023-04-20T05:49:05.407Z,10.24
2023-04-20T05:51:34.189Z,10.30
2023-04-20T05:54:02.304Z,10.22
2023-04-20T05:56:30.528Z,10.41
2023-04-20T05:59:00.250Z,10.42
2023-04-20T06:01:28.399Z,10.39
2023-04-20T06:03:56.848Z,10.62
2023-04-20T06:06:25.166Z,10.80
2023-04-20T06:08:53.376Z,10.80
2023-04-20T06:11:21.280Z,10.88
2023-04-20T06:13:49.238Z,10.91
2023-04-20T06:16:17.158Z,11.00
2023-04-20T06:18:45.133Z,11.19
2023-04-20T06:21:13.190Z,11.00
2023-04-20T06:23:41.610Z,11.04
2023-04-20T06:26:10.519Z,10.90
2023-04-20T06:28:38.685Z,10.80
2023-04-20T06:31:07.006Z,10.68
2023-04-20T06:33:35.156Z,10.53
2023-04-20T06:36:03.579Z,10.52
2023-04-20T06:38:31.499Z,10.56
2023-04-20T06:41:02.330Z,10.54
2023-04-20T06:43:31.022Z,10.64
2023-04-20T06:45:58.940Z,10.37
2023-04-20T06:48:31.355Z,10.42
2023-04-20T06:51:01.506Z,10.42
2023-04-20T06:53:29.538Z,10.50
2023-04-20T06:55:57.955Z,10.41
2023-04-20T06:58:25.988Z,10.53
2023-04-20T07:00:53.954Z,10.67
2023-04-20T07:03:22.242Z,10.77
2023-04-20T07:05:50.195Z,10.76
2023-04-20T07:08:18.221Z,10.66
2023-04-20T07:10:46.226Z,10.66
2023-04-20T07:13:14.280Z,10.79
2023-04-20T07:15:43.873Z,10.83
2023-04-20T07:18:12.251Z,10.86
2023-04-20T07:20:40.586Z,10.97
2023-04-20T07:23:08.835Z,10.89
2023-04-20T07:25:36.763Z,10.93
2023-04-20T07:28:04.759Z,10.92
2023-04-20T07:30:32.848Z,10.89
2023-04-20T07:33:01.130Z,11.14
2023-04-20T07:35:29.046Z,11.01
2023-04-20T07:37:57.157Z,11.11
2023-04-20T07:40:25.129Z,11.18
2023-04-20T07:42:53.260Z,11.39
2023-04-20T07:45:23.188Z,11.35
2023-04-20T07:47:52.716Z,11.39
2023-04-20T07:50:21.960Z,11.57
2023-04-20T07:52:49.870Z,12.39
2023-04-20T07:55:18.156Z,12.46
2023-04-20T07:57:46.142Z,12.63
2023-04-20T08:00:15.148Z,12.86
2023-04-20T08:02:45.793Z,12.73
2023-04-20T08:05:14.106Z,12.70
2023-04-20T08:07:42.329Z,12.97
2023-04-20T08:10:10.801Z,13.10
2023-04-20T08:12:40.361Z,13.06
2023-04-20T08:15:09.442Z,12.85
2023-04-20T08:17:37.444Z,12.60
2023-04-20T08:20:06.546Z,12.35
2023-04-20T08:22:34.686Z,12.25
2023-04-20T08:25:02.713Z,12.20
2023-04-20T08:27:32.724Z,12.28
2023-04-20T08:30:00.953Z,12.35
2023-04-20T08:32:28.968Z,12.19
2023-04-20T08:34:57.271Z,12.28
2023-04-20T08:37:26.219Z,12.20
2023-04-20T08:39:54.062Z,12.05
2023-04-20T08:42:22.240Z,11.94
2023-04-20T08:44:50.358Z,12.18
2023-04-20T08:47:18.286Z,12.31
2023-04-20T08:49:49.549Z,12.39
2023-04-20T08:52:17.529Z,12.15
2023-04-20T08:54:55.917Z,12.34
2023-04-20T08:57:26.613Z,12.33
2023-04-20T08:59:54.746Z,12.22
2023-04-20T09:02:22.952Z,12.18
2023-04-20T09:05:08.167Z,12.42
2023-04-20T09:07:36.365Z,12.51
2023-04-20T09:10:05.120Z,12.35
2023-04-20T09:12:43.412Z,12.29
2023-04-20T09:15:11.925Z,12.12
2023-04-20T09:17:41.541Z,11.91
2023-04-20T09:20:11.582Z,12.02
2023-04-20T09:22:41.947Z,11.96
2023-04-20T09:25:17.321Z,11.90
2023-04-20T09:28:05.962Z,12.00
2023-04-20T09:30:38.681Z,11.94
2023-04-20T09:33:12.653Z,11.71
2023-04-20T09:35:42.504Z,11.76
2023-04-20T09:38:15.303Z,11.97
2023-04-20T09:40:43.376Z,12.29
2023-04-20T09:43:18.693Z,12.72
2023-04-20T09:45:46.747Z,13.44
2023-04-20T09:48:19.476Z,14.12
2023-04-20T09:50:50.636Z,14.80
2023-04-20T09:53:20.125Z,14.63
2023-04-20T09:55:50.232Z,14.84
2023-04-20T09:58:20.633Z,15.54
2023-04-20T10:00:49.414Z,15.56
2023-04-20T10:03:19.175Z,15.99
2023-04-20T10:05:47.449Z,16.07
2023-04-20T10:08:15.698Z,16.09
2023-04-20T10:10:48.661Z,16.43
2023-04-20T10:13:19.851Z,16.73
2023-04-20T10:15:47.942Z,16.72
2023-04-20T10:18:18.218Z,16.51
2023-04-20T10:20:47.315Z,16.63
2023-04-20T10:23:16.653Z,16.41
2023-04-20T10:26:01.329Z,16.16
2023-04-20T10:28:47.963Z,16.26
2023-04-20T10:31:17.332Z,15.90
2023-04-20T10:33:56.130Z,15.99
2023-04-20T10:36:34.111Z,15.95
2023-04-20T10:39:14.950Z,15.97
2023-04-20T10:42:10.892Z,15.91
2023-04-20T10:44:52.096Z,16.10
2023-04-20T10:48:04.961Z,16.29
2023-04-20T10:50:33.027Z,16.97
2023-04-20T10:53:01.015Z,17.49
2023-04-20T10:55:28.944Z,17.23
2023-04-20T10:57:57.321Z,16.81
2023-04-20T11:00:28.177Z,17.44
2023-04-20T11:02:57.574Z,18.26
2023-04-20T11:05:30.360Z,18.93
2023-04-20T11:08:00.042Z,18.56
2023-04-20T11:10:42.674Z,18.69
2023-04-20T11:13:25.760Z,19.54
2023-04-20T11:15:53.988Z,18.76
2023-04-20T11:18:22.026Z,18.28
2023-04-20T11:20:55.141Z,18.31
2023-04-20T11:23:25.012Z,18.05
2023-04-20T11:25:54.749Z,17.93
2023-04-20T11:28:23.185Z,18.34
2023-04-20T11:30:51.509Z,18.47
2023-04-20T11:33:29.657Z,18.28
2023-04-20T11:35:59.005Z,18.29
2023-04-20T11:38:34.702Z,18.05
2023-04-20T11:41:07.096Z,18.12
2023-04-20T11:43:36.394Z,18.04
2023-04-20T11:46:17.181Z,18.27
2023-04-20T11:48:45.652Z,18.31
2023-04-20T11:51:14.605Z,18.14
2023-04-20T11:53:42.586Z,18.03
2023-04-20T11:56:10.892Z,17.87
2023-04-20T11:58:38.866Z,17.51
2023-04-20T12:01:07.142Z,17.35
2023-04-20T12:03:35.254Z,16.99
2023-04-20T12:06:03.292Z,17.12
2023-04-20T12:08:31.952Z,16.99
2023-04-20T12:11:00.039Z,17.35
2023-04-20T12:13:27.968Z,17.34
2023-04-20T12:20:12.522Z,16.94
2023-04-20T12:22:41.212Z,16.70
2023-04-20T12:28:58.891Z,16.38
2023-04-20T12:31:27.063Z,16.44
2023-04-20T12:33:55.239Z,16.33
2023-04-20T12:36:23.233Z,16.59
2023-04-20T12:38:52.744Z,16.71
2023-04-20T12:41:23.112Z,16.88
2023-04-20T12:43:51.644Z,17.01
2023-04-20T12:46:20.487Z,16.84
2023-04-20T12:48:48.632Z,16.87
2023-04-20T12:51:17.066Z,17.00
2023-04-20T12:53:45.040Z,16.98
2023-04-20T12:56:13.196Z,16.86
2023-04-20T12:58:41.459Z,16.65
2023-04-20T13:01:10.133Z,16.62
2023-04-20T13:03:38.218Z,16.32
2023-04-20T13:06:06.594Z,15.84
2023-04-20T13:08:37.103Z,15.59
2023-04-20T13:11:05.391Z,15.19
2023-04-20T13:13:33.299Z,14.74
2023-04-20T13:16:01.474Z,14.38
2023-04-20T13:18:29.567Z,14.03
2023-04-20T13:20:57.771Z,13.84
2023-04-20T13:23:25.895Z,13.56
2023-04-20T13:25:54.264Z,13.54
2023-04-20T13:28:22.099Z,13.25
2023-04-20T13:30:50.655Z,12.82
2023-04-20T13:33:18.646Z,12.81
2023-04-20T13:35:47.300Z,12.75
2023-04-20T13:38:15.513Z,12.54
2023-04-20T13:40:46.806Z,12.53
2023-04-20T13:43:15.317Z,12.63
2023-04-20T13:45:43.823Z,12.75
2023-04-20T13:48:12.190Z,12.89
2023-04-20T13:50:40.443Z,12.94
2023-04-20T13:53:08.708Z,12.97
2023-04-20T13:55:36.710Z,13.00
2023-04-20T13:58:04.690Z,12.95
2023-04-20T14:00:34.675Z,12.94
2023-04-20T14:03:03.171Z,13.07
2023-04-20T14:05:31.246Z,13.38
2023-04-20T14:08:01.934Z,13.59
2023-04-20T14:10:30.052Z,13.77
2023-04-20T14:12:57.975Z,14.06
2023-04-20T14:15:26.616Z,14.14
2023-04-20T14:17:54.733Z,14.15
2023-04-20T14:20:23.089Z,14.00
2023-04-20T14:22:51.144Z,14.24
2023-04-20T14:25:19.629Z,14.23
2023-04-20T14:27:48.128Z,14.29
2023-04-20T14:30:16.451Z,13.91
2023-04-20T14:32:56.472Z,13.90
2023-04-20T14:35:26.505Z,13.97
2023-04-20T14:37:54.864Z,14.12
2023-04-20T14:40:23.099Z,14.25
2023-04-20T14:42:51.397Z,14.42
2023-04-20T14:45:19.850Z,14.52
2023-04-20T14:47:53.664Z,14.47
2023-04-20T14:50:23.178Z,14.46
2023-04-20T14:52:53.127Z,14.44
2023-04-20T14:55:26.334Z,14.13
2023-04-20T14:57:57.450Z,14.14
2023-04-20T15:00:28.602Z,14.15
2023-04-20T15:02:57.608Z,14.14
2023-04-20T15:05:27.918Z,14.17
2023-04-20T15:07:58.227Z,14.25
2023-04-20T15:10:27.064Z,14.22
2023-04-20T15:12:55.090Z,14.23
2023-04-20T15:15:24.052Z,14.16
2023-04-20T15:17:54.213Z,14.09
2023-04-20T15:20:22.838Z,14.15
2023-04-20T15:22:51.333Z,14.19
2023-04-20T15:25:22.177Z,14.27
2023-04-20T15:27:50.615Z,14.22
2023-04-20T15:30:19.220Z,14.36
2023-04-20T15:32:47.818Z,14.26
2023-04-20T15:35:15.981Z,14.45
2023-04-20T15:37:46.653Z,14.50
2023-04-20T15:40:17.313Z,14.45
2023-04-20T15:42:45.952Z,14.47
2023-04-20T15:45:14.412Z,14.56
2023-04-20T15:47:42.778Z,14.53
2023-04-20T15:50:11.984Z,14.58
2023-04-20T15:52:40.614Z,14.32
2023-04-20T15:55:10.429Z,14.28
2023-04-20T15:57:38.802Z,13.99
2023-04-20T16:00:10.128Z,13.82
2023-04-20T16:02:40.342Z,13.78
2023-04-20T16:05:09.701Z,13.80
2023-04-20T16:07:38.191Z,13.71
2023-04-20T16:10:07.592Z,13.70
2023-04-20T16:12:36.064Z,13.65
2023-04-20T16:15:05.416Z,13.66
2023-04-20T16:17:34.379Z,13.67
2023-04-20T16:20:02.666Z,13.60
2023-04-20T16:22:31.357Z,13.49
2023-04-20T16:24:59.893Z,13.37
2023-04-20T16:27:28.515Z,13.33
2023-04-20T16:29:56.575Z,13.25
2023-04-20T16:32:25.070Z,13.22
2023-04-20T16:34:53.662Z,13.07
2023-04-20T16:37:22.008Z,13.02
2023-04-20T16:39:50.815Z,12.98
2023-04-20T16:42:19.124Z,12.84
2023-04-20T16:44:47.864Z,12.91
2023-04-20T16:47:16.498Z,12.71
2023-04-20T16:49:44.887Z,12.59
2023-04-20T16:52:13.758Z,12.54
2023-04-20T16:54:42.156Z,12.49
2023-04-20T16:57:11.384Z,12.47
2023-04-20T16:59:39.716Z,12.39
2023-04-20T17:02:08.537Z,12.15
2023-04-20T17:04:36.626Z,12.10
2023-04-20T17:07:05.069Z,12.13
2023-04-20T17:09:33.945Z,12.12
2023-04-20T17:12:02.520Z,12.12
2023-04-20T17:14:32.713Z,12.07
2023-04-20T17:17:01.394Z,11.90
2023-04-20T17:19:31.201Z,11.94
2023-04-20T17:22:00.237Z,11.87
2023-04-20T17:24:28.749Z,11.83
2023-04-20T17:26:57.364Z,11.76
2023-04-20T17:29:26.001Z,11.73
2023-04-20T17:31:55.662Z,11.63
2023-04-20T17:34:24.100Z,11.50
2023-04-20T17:36:53.051Z,11.52
2023-04-20T17:39:22.065Z,11.46
2023-04-20T17:41:50.623Z,11.47
2023-04-20T17:44:19.192Z,11.49
2023-04-20T17:46:47.706Z,11.46
2023-04-20T17:49:16.081Z,11.43
2023-04-20T17:51:44.554Z,11.40
2023-04-20T17:54:13.165Z,11.29
2023-04-20T17:56:42.736Z,11.26
2023-04-20T17:59:12.533Z,11.23
2023-04-20T18:01:41.584Z,11.09
2023-04-20T18:04:10.353Z,11.01
2023-04-20T18:06:38.965Z,11.13
2023-04-20T18:09:07.656Z,11.08
2023-04-20T18:11:36.132Z,11.02
2023-04-20T18:14:04.643Z,11.05
2023-04-20T18:16:33.931Z,10.97
2023-04-20T18:19:02.330Z,10.80
2023-04-20T18:21:31.827Z,10.81
2023-04-20T18:24:00.453Z,10.82
2023-04-20T18:26:29.155Z,10.79
2023-04-20T18:28:57.778Z,10.81
2023-04-20T18:31:26.449Z,10.78
2023-04-20T18:33:54.847Z,10.71
2023-04-20T18:36:23.187Z,10.69
2023-04-20T18:38:51.846Z,10.70
2023-04-20T18:41:20.320Z,10.67
2023-04-20T18:43:49.980Z,10.64
2023-04-20T18:46:18.536Z,10.57
2023-04-20T18:48:46.858Z,10.52
2023-04-20T18:51:15.497Z,10.57
2023-04-20T18:53:44.034Z,10.57
2023-04-20T18:56:12.695Z,10.54
2023-04-20T18:58:41.883Z,10.49
2023-04-20T19:01:11.263Z,10.40
2023-04-20T19:03:39.913Z,10.34
2023-04-20T19:06:08.281Z,10.32
2023-04-20T19:08:36.771Z,10.37
2023-04-20T19:11:07.630Z,10.44
2023-04-20T19:13:36.037Z,10.43
2023-04-20T19:16:05.135Z,10.42
2023-04-20T19:18:33.628Z,10.42
2023-04-20T19:21:02.146Z,10.42
2023-04-20T19:23:30.980Z,10.40
2023-04-20T19:25:59.437Z,10.33
2023-04-20T19:28:28.089Z,10.34
2023-04-20T19:30:57.881Z,10.34
2023-04-20T19:33:26.356Z,10.33
2023-04-20T19:35:54.848Z,10.32
2023-04-20T19:38:26.765Z,10.29
2023-04-20T19:40:55.585Z,10.27
2023-04-20T19:43:23.851Z,10.30
2023-04-20T19:45:52.672Z,10.33
2023-04-20T19:48:21.128Z,10.31
2023-04-20T19:50:51.586Z,10.26
2023-04-20T19:53:20.260Z,10.29
2023-04-20T19:55:48.960Z,10.25
2023-04-20T19:58:17.403Z,10.31
2023-04-20T20:00:46.262Z,10.23
2023-04-20T20:03:17.821Z,10.23
2023-04-20T20:05:46.412Z,10.30
2023-04-20T20:08:14.730Z,10.27
2023-04-20T20:10:43.477Z,10.13
2023-04-20T20:13:11.973Z,10.30
2023-04-20T20:15:40.878Z,10.37
2023-04-20T20:18:11.005Z,10.36
2023-04-20T20:20:39.676Z,10.33
2023-04-20T20:23:08.215Z,10.27
2023-04-20T20:25:36.702Z,10.22
2023-04-20T20:28:05.165Z,10.18
2023-04-20T20:30:33.567Z,10.17
2023-04-20T20:33:01.911Z,10.15
2023-04-20T20:35:33.657Z,10.20
2023-04-20T20:38:06.537Z,10.22
2023-04-20T20:40:36.016Z,10.20
2023-04-20T20:43:04.333Z,10.16
2023-04-20T20:45:32.672Z,10.13
2023-04-20T20:48:01.289Z,10.17
2023-04-20T20:50:29.698Z,10.12
2023-04-20T20:52:58.071Z,10.06
2023-04-20T20:55:26.430Z,10.03
2023-04-20T20:57:54.505Z,9.93
2023-04-20T21:00:22.823Z,9.91
2023-04-20T21:02:51.371Z,9.90
2023-04-20T21:05:19.736Z,9.92
2023-04-20T21:07:47.760Z,9.86
2023-04-20T21:10:15.732Z,9.82
2023-04-20T21:12:44.075Z,9.78
2023-04-20T21:15:12.521Z,9.73
2023-04-20T21:17:40.821Z,9.73
2023-04-20T21:20:10.021Z,9.73
2023-04-20T21:22:38.061Z,9.70
2023-04-20T21:25:06.720Z,9.65
2023-04-20T21:27:34.761Z,9.62
2023-04-20T21:32:47.536Z,9.51
2023-04-20T21:35:15.372Z,9.47
2023-04-20T21:37:43.962Z,9.42
2023-04-20T21:40:12.445Z,9.42
2023-04-20T21:42:40.594Z,9.43
2023-04-20T21:45:09.148Z,9.38
2023-04-20T21:47:37.232Z,9.38
2023-04-20T21:50:06.507Z,9.39
2023-04-20T21:52:34.575Z,9.40
2023-04-20T21:55:02.788Z,9.42
2023-04-20T21:57:30.849Z,9.47
2023-04-20T21:59:58.754Z,9.46
2023-04-20T22:02:26.935Z,9.49
2023-04-20T22:04:56.466Z,9.52
2023-04-20T22:07:24.810Z,9.49
2023-04-20T22:09:52.740Z,9.51
2023-04-20T22:12:32.269Z,9.52
2023-04-20T22:15:05.591Z,9.53
2023-04-20T22:17:33.588Z,9.55
2023-04-20T22:20:02.176Z,9.52
2023-04-20T22:22:30.073Z,9.48
2023-04-20T22:24:58.270Z,9.50
2023-04-20T22:27:26.768Z,9.41
2023-04-20T22:29:54.784Z,9.44
2023-04-20T22:32:22.769Z,9.45
2023-04-20T22:34:51.104Z,9.47
2023-04-20T22:37:19.319Z,9.43
2023-04-20T22:39:47.372Z,9.50
2023-04-20T22:42:15.347Z,9.46
2023-04-20T22:44:43.554Z,9.42
2023-04-20T22:47:11.663Z,9.37
2023-04-20T22:49:39.610Z,9.34
2023-04-20T22:52:09.861Z,9.20
2023-04-20T22:54:37.911Z,9.19
2023-04-20T22:57:05.803Z,9.14
2023-04-20T22:59:33.749Z,9.05
2023-04-20T23:02:01.724Z,9.05
2023-04-20T23:04:29.992Z,9.04
2023-04-20T23:06:57.948Z,9.04
2023-04-20T23:28:37.817Z,8.21
2023-04-20T23:31:05.818Z,8.37
2023-04-20T23:33:33.652Z,8.45
2023-04-20T23:36:01.634Z,8.49
2023-04-20T23:38:29.495Z,8.47
2023-04-20T23:40:57.496Z,8.41
2023-04-20T23:43:25.270Z,8.47
2023-04-20T23:45:53.581Z,8.39
2023-04-20T23:48:21.546Z,8.53
2023-04-20T23:50:50.081Z,8.54
2023-04-20T23:53:17.913Z,8.55
2023-04-20T23:55:51.904Z,8.53
2023-04-20T23:58:19.819Z,8.47
